CheckWX is a tool to help pilots better visualize weather data.  It is not intended as a substitute for an official pre-flight weather briefing.

12:21:54 UTC

4R5 METAR
Major Gilbert Field Airport
La Pointe, Wisconsin, USA
Current

7 mins ago

K4R5 221215Z AUTO 21004KT 10SM OVC034 M09/M11 A3036 RMK AO2 T10921110
Observed
Feb-22 @ 12:15 UTC
Wind
  • 210° at 4 KTS
Visibility
10 SM
Flight Rules
VFR
Cloud Levels
  • Overcast at 3,400' AGL
Temperature
-9°C / 16°F
Dewpoint
-11°C / 12°F
Humidity
86%
Altimeter
30.36" Hg
Pressure
1028.12 hPa
Previous

27 mins ago

K4R5 221155Z AUTO 20006KT 10SM OVC034 M09/M11 A3036 RMK AO2 T10881107
Observed
Feb-22 @ 11:55 UTC
Wind
  • 200° at 6 KTS
Visibility
10 SM
Flight Rules
VFR
Cloud Levels
  • Overcast at 3,400' AGL
Temperature
-9°C / 16°F
Dewpoint
-11°C / 12°F
Humidity
86%
Altimeter
30.36" Hg
Pressure
1028.12 hPa
Previous

47 mins ago

K4R5 221135Z AUTO 21006KT 10SM OVC032 M08/M10 A3036 RMK AO2 T10851105
Observed
Feb-22 @ 11:35 UTC
Wind
  • 210° at 6 KTS
Visibility
10 SM
Flight Rules
VFR
Cloud Levels
  • Overcast at 3,200' AGL
Temperature
-9°C / 16°F
Dewpoint
-11°C / 12°F
Humidity
86%
Altimeter
30.36" Hg
Pressure
1028.12 hPa